createdAt,value
2023-05-18T00:00:14.340Z,3.45
2023-05-18T00:02:42.512Z,3.40
2023-05-18T00:05:12.004Z,3.37
2023-05-18T00:07:41.187Z,3.33
2023-05-18T00:10:11.172Z,3.33
2023-05-18T00:12:39.332Z,3.32
2023-05-18T00:15:08.247Z,3.28
2023-05-18T00:17:36.378Z,3.26
2023-05-18T00:20:05.407Z,3.23
2023-05-18T00:22:38.875Z,3.21
2023-05-18T00:25:07.152Z,3.22
2023-05-18T00:27:35.185Z,3.20
2023-05-18T00:30:03.414Z,3.13
2023-05-18T00:32:31.406Z,3.06
2023-05-18T00:34:59.455Z,3.05
2023-05-18T00:37:27.446Z,3.03
2023-05-18T00:39:56.945Z,3.00
2023-05-18T00:42:24.939Z,3.01
2023-05-18T00:44:52.997Z,2.98
2023-05-18T00:47:21.741Z,2.96
2023-05-18T00:49:49.838Z,2.95
2023-05-18T00:52:18.140Z,2.87
2023-05-18T00:54:46.518Z,2.94
2023-05-18T00:57:16.058Z,2.92
2023-05-18T00:59:44.144Z,2.91
2023-05-18T01:02:12.316Z,2.93
2023-05-18T01:04:42.077Z,2.85
2023-05-18T01:07:11.520Z,2.83
2023-05-18T01:09:39.760Z,2.79
2023-05-18T01:12:19.692Z,2.79
2023-05-18T01:14:56.436Z,2.75
2023-05-18T01:17:33.687Z,2.72
2023-05-18T01:20:20.566Z,2.69
2023-05-18T01:23:23.618Z,2.71
2023-05-18T01:26:06.776Z,2.71
2023-05-18T01:28:36.670Z,2.66
2023-05-18T01:31:04.895Z,2.63
2023-05-18T01:33:33.012Z,2.55
2023-05-18T01:36:01.489Z,2.53
2023-05-18T01:38:30.538Z,2.47
2023-05-18T01:41:08.066Z,2.47
2023-05-18T01:43:37.639Z,2.50
2023-05-18T01:46:14.329Z,2.49
2023-05-18T01:48:50.322Z,2.50
2023-05-18T01:51:22.384Z,2.49
2023-05-18T01:53:58.861Z,2.46
2023-05-18T01:56:29.431Z,2.39
2023-05-18T01:58:58.809Z,2.37
2023-05-18T02:01:28.242Z,2.38
2023-05-18T02:03:56.515Z,2.44
2023-05-18T02:06:24.752Z,2.38
2023-05-18T02:08:53.032Z,2.36
2023-05-18T02:11:22.366Z,2.35
2023-05-18T02:13:51.730Z,2.30
2023-05-18T02:16:20.100Z,2.28
2023-05-18T02:18:48.240Z,2.21
2023-05-18T02:21:16.461Z,2.21
2023-05-18T02:23:44.487Z,2.21
2023-05-18T02:26:12.545Z,2.22
2023-05-18T02:28:41.136Z,2.08
2023-05-18T02:31:11.919Z,2.08
2023-05-18T02:33:40.934Z,1.98
2023-05-18T02:36:10.993Z,1.94
2023-05-18T02:38:39.753Z,1.92
2023-05-18T02:41:08.226Z,1.95
2023-05-18T02:43:36.553Z,1.97
2023-05-18T02:46:04.724Z,1.96
2023-05-18T02:48:34.699Z,1.99
2023-05-18T02:51:02.722Z,2.01
2023-05-18T02:53:33.312Z,2.04
2023-05-18T02:56:03.502Z,2.08
2023-05-18T02:58:31.809Z,2.06
2023-05-18T03:01:00.544Z,2.11
2023-05-18T03:03:28.624Z,2.19
2023-05-18T03:05:58.475Z,2.42
2023-05-18T03:08:27.278Z,2.44
2023-05-18T03:10:55.245Z,2.47
2023-05-18T03:13:23.284Z,2.58
2023-05-18T03:15:52.011Z,2.66
2023-05-18T03:18:20.302Z,2.75
2023-05-18T03:20:50.088Z,2.84
2023-05-18T03:23:19.632Z,2.89
2023-05-18T03:25:47.659Z,2.95
2023-05-18T03:28:15.732Z,2.92
2023-05-18T03:30:43.814Z,2.98
2023-05-18T03:33:12.289Z,2.99
2023-05-18T03:35:40.860Z,3.06
2023-05-18T03:38:08.909Z,3.12
2023-05-18T03:40:38.337Z,3.11
2023-05-18T03:43:06.415Z,3.11
2023-05-18T03:45:34.466Z,3.19
2023-05-18T03:48:02.575Z,3.25
2023-05-18T03:50:30.757Z,3.29
2023-05-18T03:52:59.208Z,3.40
2023-05-18T03:55:34.645Z,3.44
2023-05-18T03:58:04.157Z,3.53
2023-05-18T04:00:32.391Z,3.55
2023-05-18T04:03:03.386Z,3.61
2023-05-18T04:05:33.561Z,3.70
2023-05-18T04:08:01.674Z,3.80
2023-05-18T04:10:29.811Z,3.86
2023-05-18T04:12:58.149Z,3.90
2023-05-18T04:15:27.644Z,3.97
2023-05-18T04:17:55.748Z,4.00
2023-05-18T04:20:23.696Z,4.07
2023-05-18T04:22:52.491Z,4.12
2023-05-18T04:25:20.563Z,4.21
2023-05-18T04:27:51.639Z,4.25
2023-05-18T04:30:23.384Z,4.33
2023-05-18T04:32:54.867Z,4.41
2023-05-18T04:35:22.995Z,4.48
2023-05-18T04:37:51.770Z,4.52
2023-05-18T04:40:19.625Z,4.58
2023-05-18T04:42:48.669Z,4.67
2023-05-18T04:45:19.483Z,4.71
2023-05-18T04:47:48.538Z,4.77
2023-05-18T04:50:18.914Z,4.78
2023-05-18T04:52:49.291Z,4.85
2023-05-18T04:55:27.570Z,4.88
2023-05-18T04:57:57.248Z,4.91
2023-05-18T05:00:26.432Z,4.98
2023-05-18T05:02:55.231Z,5.03
2023-05-18T05:05:25.285Z,5.10
2023-05-18T05:07:53.985Z,5.20
2023-05-18T05:10:22.712Z,5.20
2023-05-18T05:12:51.515Z,5.25
2023-05-18T05:15:19.570Z,5.32
2023-05-18T05:17:48.141Z,5.37
2023-05-18T05:20:16.288Z,5.43
2023-05-18T05:22:45.785Z,5.53
2023-05-18T05:25:13.904Z,5.59
2023-05-18T05:27:41.952Z,5.63
2023-05-18T05:30:10.758Z,5.70
2023-05-18T05:32:38.571Z,5.76
2023-05-18T05:35:07.389Z,5.78
2023-05-18T05:37:35.736Z,5.85
2023-05-18T05:40:06.651Z,5.84
2023-05-18T05:42:35.028Z,5.87
2023-05-18T05:45:03.095Z,6.03
2023-05-18T05:47:31.179Z,6.02
2023-05-18T05:49:59.260Z,5.96
2023-05-18T05:52:29.069Z,6.02
2023-05-18T05:54:57.309Z,6.06
2023-05-18T05:57:29.508Z,6.15
2023-05-18T05:59:57.810Z,6.30
2023-05-18T06:02:25.945Z,6.38
2023-05-18T06:04:56.711Z,6.48
2023-05-18T06:07:24.711Z,6.57
2023-05-18T06:09:52.736Z,6.71
2023-05-18T06:12:20.898Z,6.68
2023-05-18T06:14:52.951Z,6.66
2023-05-18T06:17:21.234Z,6.64
2023-05-18T06:19:49.265Z,6.64
2023-05-18T06:22:17.670Z,6.69
2023-05-18T06:24:45.700Z,6.79
2023-05-18T06:27:16.504Z,6.85
2023-05-18T06:29:45.886Z,6.93
2023-05-18T06:32:15.319Z,6.99
2023-05-18T06:34:45.902Z,6.98
2023-05-18T06:37:14.053Z,7.01
2023-05-18T06:39:42.042Z,7.11
2023-05-18T06:42:10.144Z,7.13
2023-05-18T06:44:38.108Z,6.86
2023-05-18T06:47:06.667Z,6.85
2023-05-18T06:49:36.092Z,6.95
2023-05-18T06:52:04.173Z,7.02
2023-05-18T06:54:32.510Z,7.00
2023-05-18T06:57:00.453Z,7.02
2023-05-18T06:59:28.438Z,7.04
2023-05-18T07:01:56.541Z,7.08
2023-05-18T07:04:24.535Z,7.21
2023-05-18T07:06:55.883Z,7.17
2023-05-18T07:09:23.985Z,7.22
2023-05-18T07:11:52.051Z,7.29
2023-05-18T07:14:20.090Z,7.32
2023-05-18T07:16:48.069Z,7.35
2023-05-18T07:19:16.155Z,7.32
2023-05-18T07:21:44.208Z,7.40
2023-05-18T07:24:13.610Z,7.51
2023-05-18T07:26:41.621Z,7.59
2023-05-18T07:29:09.650Z,7.65
2023-05-18T07:31:40.653Z,7.72
2023-05-18T07:34:08.700Z,7.81
2023-05-18T07:36:36.680Z,7.76
2023-05-18T07:39:05.202Z,7.63
2023-05-18T07:41:34.777Z,7.77
2023-05-18T07:44:02.752Z,7.81
2023-05-18T07:46:31.593Z,7.78
2023-05-18T07:49:00.660Z,7.85
2023-05-18T07:51:30.046Z,7.80
2023-05-18T07:53:58.079Z,7.84
2023-05-18T07:56:26.279Z,7.90
2023-05-18T07:58:55.690Z,7.97
2023-05-18T08:01:27.554Z,8.10
2023-05-18T08:03:55.843Z,8.17
2023-05-18T08:06:23.990Z,8.11
2023-05-18T08:08:52.009Z,8.14
2023-05-18T08:11:19.989Z,8.24
2023-05-18T08:13:47.935Z,8.30
2023-05-18T08:16:17.483Z,8.36
2023-05-18T08:18:45.527Z,8.32
2023-05-18T08:21:13.593Z,8.34
2023-05-18T08:23:41.659Z,8.48
2023-05-18T08:26:11.844Z,8.55
2023-05-18T08:28:41.147Z,8.72
2023-05-18T08:31:09.207Z,8.62
2023-05-18T08:33:38.615Z,8.64
2023-05-18T08:36:07.100Z,8.73
2023-05-18T08:38:35.205Z,8.68
2023-05-18T08:41:09.894Z,8.75
2023-05-18T08:43:43.060Z,8.89
2023-05-18T08:46:17.805Z,8.82
2023-05-18T08:48:48.180Z,8.93
2023-05-18T08:51:21.241Z,8.99
2023-05-18T08:53:54.162Z,9.00
2023-05-18T08:56:24.695Z,9.00
2023-05-18T08:58:56.285Z,8.99
2023-05-18T09:01:29.141Z,9.04
2023-05-18T09:04:01.685Z,9.22
2023-05-18T09:06:30.220Z,9.23
2023-05-18T09:08:58.894Z,9.32
2023-05-18T09:11:27.327Z,9.44
2023-05-18T09:14:13.998Z,9.59
2023-05-18T09:16:42.187Z,9.52
2023-05-18T09:19:11.847Z,9.58
2023-05-18T09:21:40.914Z,9.40
2023-05-18T09:24:09.793Z,9.53
2023-05-18T09:26:38.102Z,9.53
2023-05-18T09:29:17.350Z,9.63
2023-05-18T09:31:46.902Z,9.59
2023-05-18T09:34:19.052Z,9.77
2023-05-18T09:36:49.577Z,9.82
2023-05-18T09:39:17.556Z,9.74
2023-05-18T09:41:45.848Z,9.88
2023-05-18T09:44:13.816Z,9.90
2023-05-18T09:46:41.866Z,10.01
2023-05-18T09:49:09.915Z,10.13
2023-05-18T09:51:40.167Z,10.31
2023-05-18T09:54:10.478Z,10.47
2023-05-18T09:56:39.328Z,10.42
2023-05-18T09:59:11.184Z,10.41
2023-05-18T10:01:56.170Z,10.52
2023-05-18T10:04:24.560Z,10.63
2023-05-18T10:06:53.983Z,10.70
2023-05-18T10:09:21.985Z,10.74
2023-05-18T10:11:51.515Z,10.77
2023-05-18T10:14:24.592Z,10.86
2023-05-18T10:17:03.528Z,11.00
2023-05-18T10:19:37.007Z,10.96
2023-05-18T10:22:07.394Z,11.04
2023-05-18T10:24:38.874Z,10.99
2023-05-18T10:27:09.938Z,11.16
2023-05-18T10:29:38.445Z,11.27
2023-05-18T10:32:08.092Z,11.21
2023-05-18T10:34:37.504Z,11.28
2023-05-18T10:37:09.245Z,11.26
2023-05-18T10:39:39.229Z,11.36
2023-05-18T10:42:10.328Z,11.32
2023-05-18T10:44:41.061Z,11.30
2023-05-18T10:47:11.635Z,11.32
2023-05-18T10:49:41.395Z,11.41
2023-05-18T10:52:13.785Z,11.61
2023-05-18T10:54:43.185Z,11.63
2023-05-18T10:57:14.569Z,11.61
2023-05-18T10:59:46.705Z,11.57
2023-05-18T11:02:18.739Z,11.60
2023-05-18T11:04:48.723Z,11.72
2023-05-18T11:07:18.318Z,11.79
2023-05-18T11:09:46.343Z,11.84
2023-05-18T11:12:15.598Z,11.96
2023-05-18T11:14:51.448Z,12.05
2023-05-18T11:17:23.587Z,12.20
2023-05-18T11:20:18.290Z,12.35
2023-05-18T11:22:52.546Z,12.41
2023-05-18T11:25:41.037Z,12.58
2023-05-18T11:28:11.101Z,12.52
2023-05-18T11:30:51.191Z,12.66
2023-05-18T11:33:24.512Z,12.71
2023-05-18T11:36:14.975Z,12.71
2023-05-18T11:38:55.336Z,12.53
2023-05-18T11:41:31.703Z,12.58
2023-05-18T11:44:06.845Z,12.59
2023-05-18T11:46:34.926Z,12.81
2023-05-18T11:49:05.243Z,12.88
2023-05-18T11:51:34.232Z,12.73
2023-05-18T11:54:09.210Z,12.95
2023-05-18T11:56:37.194Z,13.06
2023-05-18T11:59:16.091Z,13.15
2023-05-18T12:01:45.110Z,13.19
2023-05-18T12:04:13.770Z,13.07
2023-05-18T12:06:41.974Z,13.21
2023-05-18T12:09:11.503Z,13.24
2023-05-18T12:11:39.707Z,13.41
2023-05-18T12:14:08.524Z,13.31
2023-05-18T12:16:38.828Z,13.42
2023-05-18T12:19:08.377Z,13.47
2023-05-18T12:21:37.329Z,13.55
2023-05-18T12:24:05.805Z,13.72
2023-05-18T12:26:35.108Z,13.86
2023-05-18T12:29:03.262Z,13.97
2023-05-18T12:31:31.768Z,14.06
2023-05-18T12:34:02.511Z,13.96
2023-05-18T12:36:30.734Z,13.92
2023-05-18T12:38:58.710Z,14.03
2023-05-18T12:41:27.665Z,14.02
2023-05-18T12:43:58.494Z,13.89
2023-05-18T12:46:26.611Z,13.89
2023-05-18T12:49:01.475Z,13.99
2023-05-18T12:51:33.854Z,14.03
2023-05-18T12:54:05.000Z,14.14
2023-05-18T12:56:52.952Z,14.30
2023-05-18T12:59:22.337Z,14.38
2023-05-18T13:01:50.901Z,14.49
2023-05-18T13:04:19.071Z,14.57
2023-05-18T13:06:48.554Z,14.68
2023-05-18T13:09:17.094Z,14.88
2023-05-18T13:12:03.626Z,14.93
2023-05-18T13:14:39.278Z,14.93
2023-05-18T13:17:07.522Z,14.97
2023-05-18T13:19:36.915Z,15.02
2023-05-18T13:22:05.129Z,15.15
2023-05-18T13:24:33.107Z,15.19
2023-05-18T13:27:01.300Z,15.37
2023-05-18T13:29:29.322Z,15.41
2023-05-18T13:31:58.748Z,15.48
2023-05-18T13:34:26.835Z,15.52
2023-05-18T13:36:57.281Z,15.41
2023-05-18T13:39:25.284Z,15.54
2023-05-18T13:41:53.238Z,15.72
2023-05-18T13:44:21.383Z,15.86
2023-05-18T13:46:49.467Z,15.94
2023-05-18T13:49:18.931Z,15.51
2023-05-18T13:51:48.203Z,15.25
2023-05-18T13:54:16.650Z,15.40
2023-05-18T13:56:44.567Z,15.67
2023-05-18T13:59:17.392Z,15.88
2023-05-18T14:01:47.387Z,16.07
2023-05-18T14:04:15.438Z,16.10
2023-05-18T14:06:45.205Z,16.43
2023-05-18T14:09:13.254Z,16.97
2023-05-18T14:11:41.690Z,18.00
2023-05-18T14:14:09.737Z,19.18
2023-05-18T14:16:37.812Z,19.89
2023-05-18T14:19:05.837Z,21.53
2023-05-18T14:21:33.879Z,23.19
2023-05-18T14:24:07.435Z,24.44
2023-05-18T14:26:36.674Z,25.86
2023-05-18T14:29:05.018Z,26.54
2023-05-18T14:31:33.183Z,27.90
2023-05-18T14:34:01.311Z,28.85
2023-05-18T14:36:29.085Z,29.20
2023-05-18T14:38:57.086Z,29.93
2023-05-18T14:41:26.316Z,29.94
2023-05-18T14:43:54.507Z,29.13
2023-05-18T14:46:22.726Z,29.83
2023-05-18T14:48:50.792Z,30.07
2023-05-18T14:51:19.073Z,30.75
2023-05-18T14:53:47.508Z,30.96
2023-05-18T14:56:15.766Z,31.52
2023-05-18T14:58:45.232Z,32.04
2023-05-18T15:01:13.523Z,32.33
2023-05-18T15:03:41.774Z,33.12
2023-05-18T15:06:10.399Z,33.34
2023-05-18T15:08:38.446Z,33.54
2023-05-18T15:11:06.725Z,33.77
2023-05-18T15:13:34.869Z,33.44
2023-05-18T15:16:04.357Z,33.28
2023-05-18T15:18:32.462Z,33.49
2023-05-18T15:21:00.773Z,32.87
2023-05-18T15:23:28.758Z,32.84
2023-05-18T15:25:56.760Z,32.76
2023-05-18T15:28:30.272Z,31.92
2023-05-18T15:30:58.239Z,31.66
2023-05-18T15:33:27.722Z,32.40
2023-05-18T15:35:55.799Z,32.93
2023-05-18T15:38:23.854Z,33.21
2023-05-18T15:40:51.853Z,33.38
2023-05-18T15:43:20.433Z,33.33
2023-05-18T15:45:48.493Z,32.13
2023-05-18T15:48:16.579Z,32.40
2023-05-18T15:50:46.548Z,32.76
2023-05-18T15:53:18.712Z,33.15
2023-05-18T15:55:46.960Z,33.67
2023-05-18T15:58:16.172Z,33.72
2023-05-18T16:00:44.313Z,33.75
2023-05-18T16:03:12.572Z,33.95
2023-05-18T16:05:41.027Z,33.90
2023-05-18T16:08:11.739Z,33.32
2023-05-18T16:10:39.751Z,31.77
2023-05-18T16:13:09.320Z,30.63
2023-05-18T16:15:38.812Z,29.31
2023-05-18T16:18:07.373Z,27.81
2023-05-18T16:20:35.679Z,26.28
2023-05-18T16:23:03.766Z,25.07
2023-05-18T16:25:33.298Z,23.66
2023-05-18T16:28:01.357Z,22.91
2023-05-18T16:30:29.627Z,22.45
2023-05-18T16:32:58.301Z,22.13
2023-05-18T16:35:29.221Z,21.88
2023-05-18T16:37:57.347Z,21.45
2023-05-18T16:40:25.454Z,21.29
2023-05-18T16:42:54.948Z,20.80
2023-05-18T16:45:24.278Z,20.35
2023-05-18T16:47:53.329Z,20.15
2023-05-18T16:50:21.380Z,19.92
2023-05-18T16:52:49.405Z,19.69
2023-05-18T16:55:17.499Z,19.52
2023-05-18T16:57:45.591Z,19.20
2023-05-18T17:00:16.756Z,18.90
2023-05-18T17:02:45.050Z,18.75
2023-05-18T17:05:13.046Z,18.61
2023-05-18T17:07:41.131Z,18.51
2023-05-18T17:10:10.249Z,18.20
2023-05-18T17:12:38.552Z,18.14
2023-05-18T17:15:07.562Z,18.01
2023-05-18T17:17:37.036Z,17.98
2023-05-18T17:20:09.591Z,17.94
2023-05-18T17:22:37.945Z,17.55
2023-05-18T17:25:05.997Z,17.39
2023-05-18T17:27:34.067Z,17.24
2023-05-18T17:30:02.152Z,17.20
2023-05-18T17:32:30.268Z,17.22
2023-05-18T17:34:59.820Z,17.21
2023-05-18T17:37:28.036Z,17.30
2023-05-18T17:39:56.052Z,17.26
2023-05-18T17:42:24.087Z,17.29
2023-05-18T17:44:52.113Z,17.38
2023-05-18T17:47:22.097Z,17.29
2023-05-18T17:49:50.240Z,17.27
2023-05-18T17:52:19.680Z,17.43
2023-05-18T17:54:48.645Z,17.81
2023-05-18T17:57:16.644Z,18.75
2023-05-18T17:59:44.663Z,18.86
2023-05-18T18:02:14.323Z,19.42
2023-05-18T18:04:42.290Z,20.27
2023-05-18T18:07:10.329Z,21.14
2023-05-18T18:09:39.893Z,21.79
2023-05-18T18:12:08.532Z,22.22
2023-05-18T18:14:36.589Z,22.55
2023-05-18T18:17:04.673Z,22.89
2023-05-18T18:19:32.500Z,22.90
2023-05-18T18:22:00.551Z,22.80
2023-05-18T18:24:28.486Z,23.03
2023-05-18T18:26:57.971Z,22.56
2023-05-18T18:29:48.262Z,21.90
2023-05-18T18:32:17.897Z,21.00
2023-05-18T18:35:06.908Z,20.19
2023-05-18T18:37:34.967Z,19.37
2023-05-18T18:40:02.966Z,18.98
2023-05-18T18:42:32.395Z,18.52
2023-05-18T18:45:00.443Z,18.05
2023-05-18T18:47:28.479Z,17.69
2023-05-18T18:49:56.607Z,17.29
2023-05-18T18:52:24.599Z,16.98
2023-05-18T18:54:52.632Z,16.63
2023-05-18T18:57:22.006Z,16.39
2023-05-18T18:59:51.907Z,15.98
2023-05-18T19:02:20.952Z,15.62
2023-05-18T19:04:48.979Z,15.36
2023-05-18T19:07:17.004Z,15.25
2023-05-18T19:09:45.037Z,14.94
2023-05-18T19:12:13.114Z,14.86
2023-05-18T19:14:41.162Z,14.69
2023-05-18T19:17:11.801Z,14.50
2023-05-18T19:19:39.807Z,14.37
2023-05-18T19:22:07.855Z,14.23
2023-05-18T19:24:35.902Z,14.05
2023-05-18T19:27:04.037Z,13.97
2023-05-18T19:29:32.398Z,13.87
2023-05-18T19:32:00.767Z,13.72
2023-05-18T19:34:30.039Z,13.57
2023-05-18T19:36:58.200Z,13.42
2023-05-18T19:39:26.214Z,13.32
2023-05-18T19:41:55.357Z,13.25
2023-05-18T19:44:23.486Z,13.24
2023-05-18T19:46:51.607Z,13.07
2023-05-18T19:49:19.637Z,13.00
2023-05-18T19:51:49.073Z,12.72
2023-05-18T19:54:17.204Z,12.58
2023-05-18T19:56:45.501Z,12.50
2023-05-18T19:59:13.584Z,12.42
2023-05-18T20:01:41.776Z,12.27
2023-05-18T20:04:09.828Z,12.16
2023-05-18T20:06:37.870Z,12.06
2023-05-18T20:09:07.269Z,11.95
2023-05-18T20:11:35.310Z,11.82
2023-05-18T20:14:03.325Z,11.68
2023-05-18T20:16:34.008Z,11.59
2023-05-18T20:19:02.812Z,11.57
2023-05-18T20:21:31.955Z,11.39
2023-05-18T20:24:00.041Z,11.35
2023-05-18T20:26:31.980Z,11.25
2023-05-18T20:29:00.260Z,11.01
2023-05-18T20:31:28.261Z,10.91
2023-05-18T20:33:58.016Z,10.88
2023-05-18T20:36:26.732Z,10.84
2023-05-18T20:38:54.852Z,10.85
2023-05-18T20:41:23.344Z,10.84
2023-05-18T20:43:53.207Z,10.71
2023-05-18T20:46:23.986Z,10.68
2023-05-18T20:48:55.470Z,10.51
2023-05-18T20:51:24.857Z,10.37
2023-05-18T20:53:53.118Z,10.23
2023-05-18T20:56:21.969Z,10.20
2023-05-18T20:58:50.494Z,10.13
2023-05-18T21:01:21.182Z,10.00
2023-05-18T21:03:49.329Z,9.92
2023-05-18T21:06:17.446Z,9.85
2023-05-18T21:08:45.832Z,9.82
2023-05-18T21:11:14.076Z,9.82
2023-05-18T21:13:42.026Z,9.71
2023-05-18T21:16:10.891Z,9.66
2023-05-18T21:18:40.510Z,9.65
2023-05-18T21:21:08.570Z,9.62
2023-05-18T21:23:36.684Z,9.51
2023-05-18T21:26:07.598Z,9.51
2023-05-18T21:28:35.691Z,9.46
2023-05-18T21:31:04.255Z,9.58
2023-05-18T21:33:32.344Z,9.54
2023-05-18T21:36:02.218Z,9.54
2023-05-18T21:38:30.328Z,9.46
2023-05-18T21:40:59.106Z,9.45
2023-05-18T21:43:27.134Z,9.44
2023-05-18T21:45:55.217Z,9.36
2023-05-18T21:48:23.310Z,9.32
2023-05-18T21:50:51.566Z,9.35
2023-05-18T21:53:21.268Z,9.28
2023-05-18T21:55:49.329Z,9.25
2023-05-18T21:58:18.381Z,9.25
2023-05-18T22:00:46.461Z,9.22
2023-05-18T22:03:16.077Z,9.25
2023-05-18T22:05:44.843Z,9.25
2023-05-18T22:08:12.950Z,9.27
2023-05-18T22:10:42.435Z,9.18
2023-05-18T22:13:10.780Z,9.17
2023-05-18T22:15:40.702Z,9.10
2023-05-18T22:18:08.877Z,9.09
2023-05-18T22:20:37.177Z,9.08
2023-05-18T22:23:05.462Z,9.05
2023-05-18T22:25:33.507Z,9.07
2023-05-18T22:28:03.016Z,9.02
2023-05-18T22:30:31.842Z,9.02
2023-05-18T22:33:00.318Z,8.98
2023-05-18T22:35:28.420Z,8.94
2023-05-18T22:37:56.474Z,8.73
2023-05-18T22:40:24.644Z,8.75
2023-05-18T22:42:55.057Z,8.70
2023-05-18T22:45:24.547Z,8.75
2023-05-18T22:47:53.038Z,8.57
2023-05-18T22:50:21.337Z,8.51
2023-05-18T22:52:49.463Z,8.57
2023-05-18T22:55:17.573Z,8.48
2023-05-18T22:57:46.223Z,8.41
2023-05-18T23:00:15.823Z,8.32
2023-05-18T23:02:45.981Z,8.20
2023-05-18T23:05:14.592Z,8.12
2023-05-18T23:07:43.208Z,8.06
2023-05-18T23:10:12.860Z,8.01
2023-05-18T23:12:41.675Z,7.92
2023-05-18T23:15:10.970Z,7.85
2023-05-18T23:17:40.311Z,7.75
2023-05-18T23:20:11.594Z,7.77
2023-05-18T23:22:39.867Z,7.71
2023-05-18T23:25:10.134Z,7.50
2023-05-18T23:27:38.286Z,7.39
2023-05-18T23:30:07.448Z,7.26
2023-05-18T23:32:36.365Z,7.21
2023-05-18T23:35:06.706Z,7.23
2023-05-18T23:37:40.670Z,7.25
2023-05-18T23:40:11.944Z,7.16
2023-05-18T23:42:40.577Z,7.19
2023-05-18T23:45:10.167Z,7.09
2023-05-18T23:47:38.800Z,7.14
2023-05-18T23:50:08.578Z,7.05
2023-05-18T23:52:38.662Z,6.98
2023-05-18T23:55:11.582Z,6.84
2023-05-18T23:57:40.133Z,6.87
